sensor_id;sensor_type;location;lat;lon;timestamp;P1;durP1;ratioP1;P2;durP2;ratioP2
23567;SDS011;11962;50.838;4.430;2022-08-20T00:00:13;6.70;;;4.53;;
23567;SDS011;11962;50.838;4.430;2022-08-20T00:03:00;8.02;;;4.53;;
23567;SDS011;11962;50.838;4.430;2022-08-20T00:05:31;7.20;;;4.90;;
23567;SDS011;11962;50.838;4.430;2022-08-20T00:08:03;10.23;;;4.85;;
23567;SDS011;11962;50.838;4.430;2022-08-20T00:10:30;8.27;;;4.80;;
23567;SDS011;11962;50.838;4.430;2022-08-20T00:12:57;9.95;;;5.18;;
23567;SDS011;11962;50.838;4.430;2022-08-20T00:15:25;8.00;;;4.38;;
23567;SDS011;11962;50.838;4.430;2022-08-20T00:17:59;6.25;;;4.45;;
23567;SDS011;11962;50.838;4.430;2022-08-20T00:20:26;10.27;;;4.22;;
23567;SDS011;11962;50.838;4.430;2022-08-20T00:22:55;9.40;;;4.85;;
23567;SDS011;11962;50.838;4.430;2022-08-20T00:25:22;8.38;;;4.13;;
23567;SDS011;11962;50.838;4.430;2022-08-20T00:28:08;9.13;;;4.68;;
23567;SDS011;11962;50.838;4.430;2022-08-20T00:30:35;9.25;;;4.38;;
23567;SDS011;11962;50.838;4.430;2022-08-20T00:33:04;5.97;;;4.35;;
23567;SDS011;11962;50.838;4.430;2022-08-20T00:35:33;8.30;;;4.20;;
23567;SDS011;11962;50.838;4.430;2022-08-20T00:38:00;11.93;;;5.07;;
23567;SDS011;11962;50.838;4.430;2022-08-20T00:40:28;8.80;;;4.25;;
23567;SDS011;11962;50.838;4.430;2022-08-20T00:43:00;10.02;;;4.03;;
23567;SDS011;11962;50.838;4.430;2022-08-20T00:45:29;10.80;;;4.45;;
23567;SDS011;11962;50.838;4.430;2022-08-20T00:50:35;7.88;;;3.78;;
23567;SDS011;11962;50.838;4.430;2022-08-20T00:53:02;8.98;;;3.40;;
23567;SDS011;11962;50.838;4.430;2022-08-20T00:55:30;7.65;;;4.15;;
23567;SDS011;11962;50.838;4.430;2022-08-20T00:57:58;9.35;;;3.85;;
23567;SDS011;11962;50.838;4.430;2022-08-20T01:00:32;12.63;;;4.32;;
23567;SDS011;11962;50.838;4.430;2022-08-20T01:03:10;14.50;;;4.63;;
23567;SDS011;11962;50.838;4.430;2022-08-20T01:05:39;8.82;;;3.55;;
23567;SDS011;11962;50.838;4.430;2022-08-20T01:08:08;11.75;;;4.28;;
23567;SDS011;11962;50.838;4.430;2022-08-20T01:10:36;9.25;;;4.03;;
23567;SDS011;11962;50.838;4.430;2022-08-20T01:13:07;16.13;;;4.20;;
23567;SDS011;11962;50.838;4.430;2022-08-20T01:15:40;12.95;;;4.43;;
23567;SDS011;11962;50.838;4.430;2022-08-20T01:18:12;16.85;;;4.20;;
23567;SDS011;11962;50.838;4.430;2022-08-20T01:20:43;11.15;;;3.58;;
23567;SDS011;11962;50.838;4.430;2022-08-20T01:23:15;15.85;;;4.28;;
23567;SDS011;11962;50.838;4.430;2022-08-20T01:28:43;18.73;;;4.43;;
23567;SDS011;11962;50.838;4.430;2022-08-20T01:31:13;12.35;;;4.80;;
23567;SDS011;11962;50.838;4.430;2022-08-20T01:33:59;13.02;;;3.70;;
23567;SDS011;11962;50.838;4.430;2022-08-20T01:36:28;13.55;;;3.53;;
23567;SDS011;11962;50.838;4.430;2022-08-20T01:39:36;12.07;;;4.38;;
23567;SDS011;11962;50.838;4.430;2022-08-20T01:42:10;11.60;;;3.67;;
23567;SDS011;11962;50.838;4.430;2022-08-20T01:44:57;14.32;;;4.22;;
23567;SDS011;11962;50.838;4.430;2022-08-20T01:47:27;8.35;;;3.58;;
23567;SDS011;11962;50.838;4.430;2022-08-20T01:50:00;12.25;;;4.28;;
23567;SDS011;11962;50.838;4.430;2022-08-20T01:55:21;10.77;;;3.75;;
23567;SDS011;11962;50.838;4.430;2022-08-20T01:57:47;16.10;;;3.75;;
23567;SDS011;11962;50.838;4.430;2022-08-20T02:00:14;11.25;;;3.50;;
23567;SDS011;11962;50.838;4.430;2022-08-20T02:02:41;14.67;;;4.10;;
23567;SDS011;11962;50.838;4.430;2022-08-20T02:05:07;12.60;;;3.80;;
23567;SDS011;11962;50.838;4.430;2022-08-20T02:07:33;16.35;;;4.00;;
23567;SDS011;11962;50.838;4.430;2022-08-20T02:09:59;14.48;;;3.78;;
23567;SDS011;11962;50.838;4.430;2022-08-20T02:12:25;15.93;;;3.85;;
23567;SDS011;11962;50.838;4.430;2022-08-20T02:14:52;14.95;;;3.78;;
23567;SDS011;11962;50.838;4.430;2022-08-20T02:19:52;15.35;;;3.42;;
23567;SDS011;11962;50.838;4.430;2022-08-20T02:22:35;11.05;;;3.45;;
23567;SDS011;11962;50.838;4.430;2022-08-20T02:25:11;15.13;;;3.92;;
23567;SDS011;11962;50.838;4.430;2022-08-20T02:27:39;23.33;;;4.60;;
23567;SDS011;11962;50.838;4.430;2022-08-20T02:32:35;9.70;;;3.90;;
23567;SDS011;11962;50.838;4.430;2022-08-20T02:35:11;13.65;;;4.22;;
23567;SDS011;11962;50.838;4.430;2022-08-20T02:37:39;17.08;;;4.80;;
23567;SDS011;11962;50.838;4.430;2022-08-20T02:40:07;14.05;;;4.53;;
23567;SDS011;11962;50.838;4.430;2022-08-20T02:42:35;11.38;;;3.95;;
23567;SDS011;11962;50.838;4.430;2022-08-20T02:47:30;11.52;;;4.57;;
23567;SDS011;11962;50.838;4.430;2022-08-20T02:49:56;20.05;;;4.80;;
23567;SDS011;11962;50.838;4.430;2022-08-20T02:52:23;17.25;;;5.35;;
23567;SDS011;11962;50.838;4.430;2022-08-20T02:54:49;16.67;;;4.55;;
23567;SDS011;11962;50.838;4.430;2022-08-20T02:57:16;20.33;;;5.25;;
23567;SDS011;11962;50.838;4.430;2022-08-20T02:59:46;17.02;;;4.70;;
23567;SDS011;11962;50.838;4.430;2022-08-20T03:02:13;13.35;;;4.95;;
23567;SDS011;11962;50.838;4.430;2022-08-20T03:04:51;11.68;;;4.90;;
23567;SDS011;11962;50.838;4.430;2022-08-20T03:07:17;15.18;;;5.78;;
23567;SDS011;11962;50.838;4.430;2022-08-20T03:09:42;20.23;;;5.82;;
23567;SDS011;11962;50.838;4.430;2022-08-20T03:12:08;18.55;;;5.30;;
23567;SDS011;11962;50.838;4.430;2022-08-20T03:14:34;16.58;;;5.03;;
23567;SDS011;11962;50.838;4.430;2022-08-20T03:17:00;13.65;;;4.90;;
23567;SDS011;11962;50.838;4.430;2022-08-20T03:19:29;20.58;;;4.97;;
23567;SDS011;11962;50.838;4.430;2022-08-20T03:21:54;23.20;;;5.35;;
23567;SDS011;11962;50.838;4.430;2022-08-20T03:24:20;17.55;;;5.32;;
23567;SDS011;11962;50.838;4.430;2022-08-20T03:26:45;20.88;;;4.78;;
23567;SDS011;11962;50.838;4.430;2022-08-20T03:29:11;17.35;;;5.20;;
23567;SDS011;11962;50.838;4.430;2022-08-20T03:31:37;17.25;;;5.18;;
23567;SDS011;11962;50.838;4.430;2022-08-20T03:34:03;16.85;;;5.50;;
23567;SDS011;11962;50.838;4.430;2022-08-20T03:36:29;18.08;;;5.75;;
23567;SDS011;11962;50.838;4.430;2022-08-20T03:38:59;14.93;;;5.32;;
23567;SDS011;11962;50.838;4.430;2022-08-20T03:41:27;17.13;;;5.38;;
23567;SDS011;11962;50.838;4.430;2022-08-20T03:43:53;20.58;;;5.22;;
23567;SDS011;11962;50.838;4.430;2022-08-20T03:46:18;20.50;;;5.40;;
23567;SDS011;11962;50.838;4.430;2022-08-20T03:48:44;21.05;;;5.82;;
23567;SDS011;11962;50.838;4.430;2022-08-20T03:51:10;22.60;;;5.93;;
23567;SDS011;11962;50.838;4.430;2022-08-20T03:53:35;19.00;;;6.07;;
23567;SDS011;11962;50.838;4.430;2022-08-20T03:56:02;20.08;;;5.45;;
23567;SDS011;11962;50.838;4.430;2022-08-20T03:58:30;14.57;;;5.43;;
23567;SDS011;11962;50.838;4.430;2022-08-20T04:00:57;19.02;;;5.70;;
23567;SDS011;11962;50.838;4.430;2022-08-20T04:03:23;18.92;;;5.90;;
23567;SDS011;11962;50.838;4.430;2022-08-20T04:05:52;19.83;;;5.13;;
23567;SDS011;11962;50.838;4.430;2022-08-20T04:08:19;17.80;;;5.40;;
23567;SDS011;11962;50.838;4.430;2022-08-20T04:10:48;14.38;;;5.45;;
23567;SDS011;11962;50.838;4.430;2022-08-20T04:13:15;17.30;;;5.75;;
23567;SDS011;11962;50.838;4.430;2022-08-20T04:15:42;16.48;;;5.75;;
23567;SDS011;11962;50.838;4.430;2022-08-20T04:18:09;22.42;;;6.38;;
23567;SDS011;11962;50.838;4.430;2022-08-20T04:20:37;19.90;;;6.32;;
23567;SDS011;11962;50.838;4.430;2022-08-20T04:23:04;18.55;;;6.40;;
23567;SDS011;11962;50.838;4.430;2022-08-20T04:25:30;21.17;;;5.85;;
23567;SDS011;11962;50.838;4.430;2022-08-20T04:27:58;22.40;;;6.03;;
23567;SDS011;11962;50.838;4.430;2022-08-20T04:30:24;17.70;;;6.03;;
23567;SDS011;11962;50.838;4.430;2022-08-20T04:32:50;17.30;;;6.10;;
23567;SDS011;11962;50.838;4.430;2022-08-20T04:35:17;24.13;;;6.50;;
23567;SDS011;11962;50.838;4.430;2022-08-20T04:37:44;19.58;;;6.30;;
23567;SDS011;11962;50.838;4.430;2022-08-20T04:40:16;26.35;;;6.72;;
23567;SDS011;11962;50.838;4.430;2022-08-20T04:43:02;19.23;;;5.57;;
23567;SDS011;11962;50.838;4.430;2022-08-20T04:45:29;17.17;;;5.57;;
23567;SDS011;11962;50.838;4.430;2022-08-20T04:47:56;16.17;;;5.63;;
23567;SDS011;11962;50.838;4.430;2022-08-20T04:50:37;17.02;;;6.50;;
23567;SDS011;11962;50.838;4.430;2022-08-20T04:53:06;20.50;;;5.95;;
23567;SDS011;11962;50.838;4.430;2022-08-20T04:55:35;23.35;;;6.35;;
23567;SDS011;11962;50.838;4.430;2022-08-20T04:58:07;17.60;;;5.97;;
23567;SDS011;11962;50.838;4.430;2022-08-20T05:00:34;19.65;;;6.50;;
23567;SDS011;11962;50.838;4.430;2022-08-20T05:03:00;25.48;;;6.68;;
23567;SDS011;11962;50.838;4.430;2022-08-20T05:05:31;17.98;;;6.25;;
23567;SDS011;11962;50.838;4.430;2022-08-20T05:08:00;18.65;;;6.22;;
23567;SDS011;11962;50.838;4.430;2022-08-20T05:10:27;17.95;;;6.60;;
23567;SDS011;11962;50.838;4.430;2022-08-20T05:12:53;21.58;;;6.35;;
23567;SDS011;11962;50.838;4.430;2022-08-20T05:15:19;13.05;;;5.80;;
23567;SDS011;11962;50.838;4.430;2022-08-20T05:17:45;21.08;;;7.05;;
23567;SDS011;11962;50.838;4.430;2022-08-20T05:20:17;20.45;;;6.38;;
23567;SDS011;11962;50.838;4.430;2022-08-20T05:22:43;22.58;;;7.00;;
23567;SDS011;11962;50.838;4.430;2022-08-20T05:25:08;21.60;;;6.78;;
23567;SDS011;11962;50.838;4.430;2022-08-20T05:27:34;23.17;;;6.05;;
23567;SDS011;11962;50.838;4.430;2022-08-20T05:30:01;20.67;;;6.32;;
23567;SDS011;11962;50.838;4.430;2022-08-20T05:32:31;19.88;;;7.00;;
23567;SDS011;11962;50.838;4.430;2022-08-20T05:34:57;20.42;;;6.28;;
23567;SDS011;11962;50.838;4.430;2022-08-20T05:40:21;23.70;;;6.60;;
23567;SDS011;11962;50.838;4.430;2022-08-20T05:42:47;21.38;;;6.32;;
23567;SDS011;11962;50.838;4.430;2022-08-20T05:45:13;18.25;;;6.75;;
23567;SDS011;11962;50.838;4.430;2022-08-20T05:47:41;22.00;;;6.85;;
23567;SDS011;11962;50.838;4.430;2022-08-20T05:50:09;20.42;;;6.50;;
23567;SDS011;11962;50.838;4.430;2022-08-20T05:52:35;16.52;;;6.25;;
23567;SDS011;11962;50.838;4.430;2022-08-20T05:55:02;13.30;;;6.45;;
23567;SDS011;11962;50.838;4.430;2022-08-20T05:59:55;16.17;;;5.72;;
23567;SDS011;11962;50.838;4.430;2022-08-20T06:02:23;18.30;;;5.97;;
23567;SDS011;11962;50.838;4.430;2022-08-20T06:05:07;22.30;;;6.15;;
23567;SDS011;11962;50.838;4.430;2022-08-20T06:07:33;23.88;;;6.85;;
23567;SDS011;11962;50.838;4.430;2022-08-20T06:09:59;17.77;;;5.72;;
23567;SDS011;11962;50.838;4.430;2022-08-20T06:12:25;22.98;;;5.80;;
23567;SDS011;11962;50.838;4.430;2022-08-20T06:14:50;17.33;;;5.90;;
23567;SDS011;11962;50.838;4.430;2022-08-20T06:17:17;23.42;;;6.13;;
23567;SDS011;11962;50.838;4.430;2022-08-20T06:19:43;20.50;;;6.38;;
23567;SDS011;11962;50.838;4.430;2022-08-20T06:25:25;16.67;;;6.10;;
23567;SDS011;11962;50.838;4.430;2022-08-20T06:27:51;19.83;;;6.45;;
23567;SDS011;11962;50.838;4.430;2022-08-20T06:30:17;24.17;;;6.50;;
23567;SDS011;11962;50.838;4.430;2022-08-20T06:32:42;19.42;;;6.35;;
23567;SDS011;11962;50.838;4.430;2022-08-20T06:35:09;18.98;;;6.28;;
23567;SDS011;11962;50.838;4.430;2022-08-20T06:37:38;21.20;;;6.15;;
23567;SDS011;11962;50.838;4.430;2022-08-20T06:40:06;17.52;;;6.07;;
23567;SDS011;11962;50.838;4.430;2022-08-20T06:42:35;17.00;;;5.25;;
23567;SDS011;11962;50.838;4.430;2022-08-20T06:45:04;15.02;;;5.00;;
23567;SDS011;11962;50.838;4.430;2022-08-20T06:47:30;19.10;;;4.82;;
23567;SDS011;11962;50.838;4.430;2022-08-20T06:49:56;13.68;;;4.60;;
23567;SDS011;11962;50.838;4.430;2022-08-20T06:52:22;13.95;;;4.38;;
23567;SDS011;11962;50.838;4.430;2022-08-20T06:54:47;11.43;;;4.38;;
23567;SDS011;11962;50.838;4.430;2022-08-20T06:57:13;12.27;;;4.22;;
23567;SDS011;11962;50.838;4.430;2022-08-20T06:59:39;13.32;;;4.38;;
23567;SDS011;11962;50.838;4.430;2022-08-20T07:02:06;11.20;;;4.05;;
23567;SDS011;11962;50.838;4.430;2022-08-20T07:04:31;13.02;;;4.07;;
23567;SDS011;11962;50.838;4.430;2022-08-20T07:07:14;11.27;;;4.35;;
23567;SDS011;11962;50.838;4.430;2022-08-20T07:09:41;13.88;;;4.63;;
23567;SDS011;11962;50.838;4.430;2022-08-20T07:12:07;13.13;;;4.65;;
23567;SDS011;11962;50.838;4.430;2022-08-20T07:14:34;15.50;;;5.35;;
23567;SDS011;11962;50.838;4.430;2022-08-20T07:17:04;17.08;;;4.88;;
23567;SDS011;11962;50.838;4.430;2022-08-20T07:19:30;15.38;;;4.85;;
23567;SDS011;11962;50.838;4.430;2022-08-20T07:24:42;18.60;;;5.18;;
23567;SDS011;11962;50.838;4.430;2022-08-20T07:27:09;16.40;;;5.20;;
23567;SDS011;11962;50.838;4.430;2022-08-20T07:29:34;15.50;;;6.22;;
23567;SDS011;11962;50.838;4.430;2022-08-20T07:32:19;19.15;;;7.45;;
23567;SDS011;11962;50.838;4.430;2022-08-20T07:35:01;16.83;;;6.80;;
23567;SDS011;11962;50.838;4.430;2022-08-20T07:37:39;16.27;;;6.93;;
23567;SDS011;11962;50.838;4.430;2022-08-20T07:40:07;20.48;;;6.65;;
23567;SDS011;11962;50.838;4.430;2022-08-20T07:42:36;14.48;;;5.85;;
23567;SDS011;11962;50.838;4.430;2022-08-20T07:45:03;11.50;;;4.90;;
23567;SDS011;11962;50.838;4.430;2022-08-20T07:47:30;14.68;;;5.20;;
23567;SDS011;11962;50.838;4.430;2022-08-20T07:50:00;13.85;;;5.18;;
23567;SDS011;11962;50.838;4.430;2022-08-20T07:52:25;14.55;;;4.97;;
23567;SDS011;11962;50.838;4.430;2022-08-20T07:54:51;15.15;;;4.88;;
23567;SDS011;11962;50.838;4.430;2022-08-20T07:57:17;12.90;;;4.15;;
23567;SDS011;11962;50.838;4.430;2022-08-20T07:59:42;14.10;;;4.63;;
23567;SDS011;11962;50.838;4.430;2022-08-20T08:02:10;11.27;;;3.92;;
23567;SDS011;11962;50.838;4.430;2022-08-20T08:04:36;9.87;;;3.60;;
23567;SDS011;11962;50.838;4.430;2022-08-20T08:07:03;10.10;;;3.47;;
23567;SDS011;11962;50.838;4.430;2022-08-20T08:09:29;9.48;;;3.80;;
23567;SDS011;11962;50.838;4.430;2022-08-20T08:11:58;9.57;;;3.47;;
23567;SDS011;11962;50.838;4.430;2022-08-20T08:14:27;11.90;;;3.80;;
23567;SDS011;11962;50.838;4.430;2022-08-20T08:16:56;9.45;;;3.45;;
23567;SDS011;11962;50.838;4.430;2022-08-20T08:19:26;8.32;;;3.38;;
23567;SDS011;11962;50.838;4.430;2022-08-20T08:22:02;11.02;;;3.42;;
23567;SDS011;11962;50.838;4.430;2022-08-20T08:24:32;9.25;;;3.60;;
23567;SDS011;11962;50.838;4.430;2022-08-20T08:26:58;8.57;;;3.22;;
23567;SDS011;11962;50.838;4.430;2022-08-20T08:29:24;8.37;;;2.83;;
23567;SDS011;11962;50.838;4.430;2022-08-20T08:31:50;6.25;;;3.10;;
23567;SDS011;11962;50.838;4.430;2022-08-20T08:34:16;9.93;;;3.20;;
23567;SDS011;11962;50.838;4.430;2022-08-20T08:36:41;11.47;;;3.23;;
23567;SDS011;11962;50.838;4.430;2022-08-20T08:42:01;6.43;;;2.65;;
23567;SDS011;11962;50.838;4.430;2022-08-20T08:44:48;9.00;;;3.20;;
23567;SDS011;11962;50.838;4.430;2022-08-20T08:47:18;8.20;;;3.17;;
23567;SDS011;11962;50.838;4.430;2022-08-20T08:49:58;9.02;;;3.20;;
23567;SDS011;11962;50.838;4.430;2022-08-20T08:52:27;9.13;;;2.72;;
23567;SDS011;11962;50.838;4.430;2022-08-20T08:54:57;9.65;;;3.13;;
23567;SDS011;11962;50.838;4.430;2022-08-20T08:57:25;7.00;;;2.55;;
23567;SDS011;11962;50.838;4.430;2022-08-20T08:59:59;7.57;;;2.83;;
23567;SDS011;11962;50.838;4.430;2022-08-20T09:02:28;8.95;;;2.95;;
23567;SDS011;11962;50.838;4.430;2022-08-20T09:04:56;8.35;;;3.08;;
23567;SDS011;11962;50.838;4.430;2022-08-20T09:07:30;8.65;;;3.10;;
23567;SDS011;11962;50.838;4.430;2022-08-20T09:09:57;10.25;;;3.28;;
23567;SDS011;11962;50.838;4.430;2022-08-20T09:12:24;8.02;;;2.65;;
23567;SDS011;11962;50.838;4.430;2022-08-20T09:14:51;8.25;;;2.95;;
23567;SDS011;11962;50.838;4.430;2022-08-20T09:17:18;7.55;;;2.50;;
23567;SDS011;11962;50.838;4.430;2022-08-20T09:19:45;8.48;;;2.55;;
23567;SDS011;11962;50.838;4.430;2022-08-20T09:22:12;9.65;;;2.65;;
23567;SDS011;11962;50.838;4.430;2022-08-20T09:28:02;7.68;;;2.35;;
23567;SDS011;11962;50.838;4.430;2022-08-20T09:30:28;8.82;;;2.13;;
23567;SDS011;11962;50.838;4.430;2022-08-20T09:32:53;6.37;;;2.40;;
23567;SDS011;11962;50.838;4.430;2022-08-20T09:35:22;8.85;;;2.30;;
23567;SDS011;11962;50.838;4.430;2022-08-20T09:40:38;7.68;;;1.83;;
23567;SDS011;11962;50.838;4.430;2022-08-20T09:43:04;7.78;;;2.45;;
23567;SDS011;11962;50.838;4.430;2022-08-20T09:45:30;7.30;;;1.95;;
23567;SDS011;11962;50.838;4.430;2022-08-20T09:47:56;8.23;;;2.33;;
23567;SDS011;11962;50.838;4.430;2022-08-20T09:50:23;5.90;;;1.75;;
23567;SDS011;11962;50.838;4.430;2022-08-20T09:52:53;6.43;;;1.73;;
23567;SDS011;11962;50.838;4.430;2022-08-20T09:55:23;6.82;;;1.95;;
23567;SDS011;11962;50.838;4.430;2022-08-20T09:57:56;7.60;;;1.98;;
23567;SDS011;11962;50.838;4.430;2022-08-20T10:00:23;7.00;;;1.98;;
23567;SDS011;11962;50.838;4.430;2022-08-20T10:02:49;8.43;;;1.88;;
23567;SDS011;11962;50.838;4.430;2022-08-20T10:05:15;8.55;;;1.95;;
23567;SDS011;11962;50.838;4.430;2022-08-20T10:07:41;9.73;;;1.93;;
23567;SDS011;11962;50.838;4.430;2022-08-20T10:10:12;8.73;;;2.38;;
23567;SDS011;11962;50.838;4.430;2022-08-20T10:12:39;6.20;;;1.90;;
23567;SDS011;11962;50.838;4.430;2022-08-20T10:15:08;4.50;;;1.70;;
23567;SDS011;11962;50.838;4.430;2022-08-20T10:17:38;5.95;;;1.92;;
23567;SDS011;11962;50.838;4.430;2022-08-20T10:20:05;7.25;;;1.70;;
23567;SDS011;11962;50.838;4.430;2022-08-20T10:22:33;9.15;;;2.03;;
23567;SDS011;11962;50.838;4.430;2022-08-20T10:25:14;5.88;;;1.52;;
23567;SDS011;11962;50.838;4.430;2022-08-20T10:27:41;9.52;;;2.08;;
23567;SDS011;11962;50.838;4.430;2022-08-20T10:32:34;5.70;;;1.73;;
23567;SDS011;11962;50.838;4.430;2022-08-20T10:34:59;7.37;;;1.73;;
23567;SDS011;11962;50.838;4.430;2022-08-20T10:37:25;7.32;;;2.03;;
23567;SDS011;11962;50.838;4.430;2022-08-20T10:39:51;5.73;;;1.70;;
23567;SDS011;11962;50.838;4.430;2022-08-20T10:44:43;7.95;;;1.90;;
23567;SDS011;11962;50.838;4.430;2022-08-20T10:52:12;7.53;;;2.10;;
23567;SDS011;11962;50.838;4.430;2022-08-20T10:54:41;6.80;;;1.70;;
23567;SDS011;11962;50.838;4.430;2022-08-20T10:57:08;6.80;;;2.00;;
23567;SDS011;11962;50.838;4.430;2022-08-20T10:59:38;6.40;;;2.35;;
23567;SDS011;11962;50.838;4.430;2022-08-20T11:02:05;5.82;;;2.15;;
23567;SDS011;11962;50.838;4.430;2022-08-20T11:04:31;4.93;;;1.90;;
23567;SDS011;11962;50.838;4.430;2022-08-20T11:06:57;8.77;;;2.30;;
23567;SDS011;11962;50.838;4.430;2022-08-20T11:09:22;3.70;;;1.50;;
23567;SDS011;11962;50.838;4.430;2022-08-20T11:11:48;9.13;;;2.50;;
23567;SDS011;11962;50.838;4.430;2022-08-20T11:14:13;7.95;;;2.33;;
23567;SDS011;11962;50.838;4.430;2022-08-20T11:16:39;8.63;;;2.30;;
23567;SDS011;11962;50.838;4.430;2022-08-20T11:19:05;8.80;;;2.28;;
23567;SDS011;11962;50.838;4.430;2022-08-20T11:21:30;8.65;;;2.47;;
23567;SDS011;11962;50.838;4.430;2022-08-20T11:23:56;6.32;;;2.38;;
23567;SDS011;11962;50.838;4.430;2022-08-20T11:26:22;8.23;;;2.15;;
23567;SDS011;11962;50.838;4.430;2022-08-20T11:28:49;8.00;;;2.25;;
23567;SDS011;11962;50.838;4.430;2022-08-20T11:31:14;7.47;;;2.10;;
23567;SDS011;11962;50.838;4.430;2022-08-20T11:33:40;6.47;;;2.28;;
23567;SDS011;11962;50.838;4.430;2022-08-20T11:36:06;7.60;;;2.15;;
